createdAt,value
2022-12-11T00:01:20.567Z,100709.81
2022-12-11T00:03:48.748Z,100712.06
2022-12-11T00:06:18.883Z,100707.34
2022-12-11T00:08:46.604Z,100708.16
2022-12-11T00:11:18.895Z,100715.38
2022-12-11T00:13:47.285Z,100712.91
2022-12-11T00:16:14.779Z,100695.94
2022-12-11T00:18:42.495Z,100700.66
2022-12-11T00:21:13.609Z,100697.34
2022-12-11T00:23:41.207Z,100684.00
2022-12-11T00:26:12.705Z,100681.50
2022-12-11T00:28:39.909Z,100678.16
2022-12-11T00:31:09.202Z,100677.84
2022-12-11T00:33:36.283Z,100665.09
2022-12-11T00:36:04.070Z,100686.16
2022-12-11T00:38:31.212Z,100681.75
2022-12-11T00:40:59.792Z,100673.16
2022-12-11T00:43:27.331Z,100683.72
2022-12-11T00:45:55.121Z,100672.28
2022-12-11T00:48:22.469Z,100669.53
2022-12-11T00:50:49.908Z,100671.75
2022-12-11T00:53:17.267Z,100649.00
2022-12-11T00:55:44.581Z,100652.59
2022-12-11T00:58:12.688Z,100673.38
2022-12-11T01:00:41.140Z,100666.66
2022-12-11T01:03:08.499Z,100659.22
2022-12-11T01:05:36.200Z,100654.75
2022-12-11T01:08:03.868Z,100650.31
2022-12-11T01:10:31.853Z,100635.78
2022-12-11T01:13:06.031Z,100653.78
2022-12-11T01:15:41.506Z,100644.91
2022-12-11T01:18:14.385Z,100644.59
2022-12-11T01:20:42.821Z,100639.03
2022-12-11T01:23:13.182Z,100648.72
2022-12-11T01:25:41.224Z,100626.47
2022-12-11T01:28:09.054Z,100636.72
2022-12-11T01:30:36.885Z,100639.22
2022-12-11T01:33:04.162Z,100619.94
2022-12-11T01:35:31.439Z,100624.66
2022-12-11T01:37:59.867Z,100613.50
2022-12-11T01:40:27.109Z,100635.22
2022-12-11T01:42:54.478Z,100621.97
2022-12-11T01:45:23.802Z,100625.59
2022-12-11T01:47:58.676Z,100615.06
2022-12-11T01:50:26.237Z,100615.28
2022-12-11T01:52:53.907Z,100615.59
2022-12-11T01:55:21.925Z,100634.59
2022-12-11T01:57:51.119Z,100625.06
2022-12-11T02:00:19.676Z,100630.91
2022-12-11T02:02:46.919Z,100620.16
2022-12-11T02:05:14.296Z,100616.25
2022-12-11T02:07:50.709Z,100626.06
2022-12-11T02:10:18.988Z,100610.22
2022-12-11T02:12:58.105Z,100621.31
2022-12-11T02:15:35.917Z,100623.66
2022-12-11T02:18:29.024Z,100618.28
2022-12-11T02:21:05.927Z,100613.22
2022-12-11T02:23:53.268Z,100631.22
2022-12-11T02:26:23.443Z,100628.44
2022-12-11T02:28:58.507Z,100630.09
2022-12-11T02:31:37.293Z,100627.13
2022-12-11T02:34:30.946Z,100622.94
2022-12-11T02:37:02.501Z,100603.72
2022-12-11T02:39:31.506Z,100628.44
2022-12-11T02:41:59.885Z,100617.31
2022-12-11T02:44:30.830Z,100626.50
2022-12-11T02:46:58.879Z,100628.69
2022-12-11T02:49:28.501Z,100613.16
2022-12-11T02:51:58.283Z,100616.63
2022-12-11T02:54:32.151Z,100624.13
2022-12-11T02:57:06.520Z,100622.56
2022-12-11T02:59:41.102Z,100615.63
2022-12-11T03:02:08.419Z,100614.16
2022-12-11T03:04:36.644Z,100624.78
2022-12-11T03:07:16.233Z,100634.09
2022-12-11T03:09:45.761Z,100627.03
2022-12-11T03:12:17.900Z,100630.94
2022-12-11T03:14:45.656Z,100601.03
2022-12-11T03:17:18.503Z,100612.94
2022-12-11T03:19:51.699Z,100612.16
2022-12-11T03:22:34.202Z,100598.50
2022-12-11T03:25:07.289Z,100600.28
2022-12-11T03:27:50.032Z,100601.50
2022-12-11T03:30:19.772Z,100597.84
2022-12-11T03:32:56.661Z,100599.03
2022-12-11T03:35:31.117Z,100601.09
2022-12-11T03:38:04.110Z,100601.09
2022-12-11T03:40:34.324Z,100584.81
2022-12-11T03:43:02.932Z,100597.03
2022-12-11T03:45:30.696Z,100602.31
2022-12-11T03:48:00.128Z,100597.94
2022-12-11T03:50:31.208Z,100597.38
2022-12-11T03:53:00.719Z,100605.06
2022-12-11T03:55:29.852Z,100601.50
2022-12-11T03:57:57.190Z,100595.56
2022-12-11T04:00:24.992Z,100603.91
2022-12-11T04:03:13.605Z,100597.13
2022-12-11T04:05:50.198Z,100604.28
2022-12-11T04:08:20.929Z,100604.75
2022-12-11T04:10:48.741Z,100600.97
2022-12-11T04:13:15.882Z,100593.72
2022-12-11T04:15:43.108Z,100606.53
2022-12-11T04:18:49.346Z,100595.06
2022-12-11T04:21:39.493Z,100608.25
2022-12-11T04:24:17.379Z,100607.44
2022-12-11T04:26:46.839Z,100596.22
2022-12-11T04:29:15.460Z,100617.28
2022-12-11T04:31:45.938Z,100603.72
2022-12-11T04:34:13.195Z,100597.69
2022-12-11T04:36:40.396Z,100606.19
2022-12-11T04:39:07.547Z,100600.69
2022-12-11T04:41:35.809Z,100607.84
2022-12-11T04:44:05.783Z,100589.75
2022-12-11T04:46:33.846Z,100602.13
2022-12-11T04:49:01.391Z,100613.31
2022-12-11T04:51:29.071Z,100609.91
2022-12-11T04:53:56.611Z,100607.88
2022-12-11T04:56:23.736Z,100601.84
2022-12-11T04:58:50.901Z,100617.06
2022-12-11T05:01:21.691Z,100613.78
2022-12-11T05:03:49.168Z,100615.53
2022-12-11T05:06:17.323Z,100615.28
2022-12-11T05:08:45.620Z,100625.50
2022-12-11T05:11:15.453Z,100621.66
2022-12-11T05:13:43.693Z,100623.97
2022-12-11T05:16:13.627Z,100620.13
2022-12-11T05:18:40.825Z,100630.09
2022-12-11T05:21:10.790Z,100626.41
2022-12-11T05:23:38.731Z,100630.81
2022-12-11T05:26:09.533Z,100632.47
2022-12-11T05:28:39.098Z,100634.75
2022-12-11T05:31:18.505Z,100649.59
2022-12-11T05:33:47.657Z,100639.22
2022-12-11T05:36:28.579Z,100634.66
2022-12-11T05:38:57.280Z,100634.63
2022-12-11T05:41:27.499Z,100624.25
2022-12-11T05:43:54.870Z,100647.22
2022-12-11T05:46:27.108Z,100644.84
2022-12-11T05:48:57.384Z,100643.19
2022-12-11T05:51:25.483Z,100638.22
2022-12-11T05:53:53.800Z,100654.47
2022-12-11T05:56:26.838Z,100651.50
2022-12-11T05:58:54.960Z,100655.97
2022-12-11T06:01:26.630Z,100652.78
2022-12-11T06:03:55.605Z,100649.38
2022-12-11T06:06:23.624Z,100634.28
2022-12-11T06:08:51.720Z,100651.91
2022-12-11T06:11:23.975Z,100649.16
2022-12-11T06:13:53.056Z,100659.16
2022-12-11T06:16:21.190Z,100646.03
2022-12-11T06:18:48.490Z,100646.31
2022-12-11T06:21:24.624Z,100660.09
2022-12-11T06:23:54.286Z,100661.00
2022-12-11T06:26:22.451Z,100662.16
2022-12-11T06:28:50.446Z,100656.84
2022-12-11T06:31:18.755Z,100641.19
2022-12-11T06:33:46.750Z,100658.28
2022-12-11T06:36:17.134Z,100665.72
2022-12-11T06:38:46.545Z,100670.63
2022-12-11T06:41:13.815Z,100655.19
2022-12-11T06:43:43.070Z,100667.13
2022-12-11T06:46:13.923Z,100654.19
2022-12-11T06:48:42.917Z,100652.91
2022-12-11T06:51:15.454Z,100650.91
2022-12-11T06:53:43.245Z,100661.16
2022-12-11T06:56:14.052Z,100649.13
2022-12-11T06:58:42.514Z,100662.44
2022-12-11T07:01:24.350Z,100662.72
2022-12-11T07:03:54.016Z,100656.31
2022-12-11T07:06:21.718Z,100640.13
2022-12-11T07:08:49.120Z,100639.69
2022-12-11T07:11:17.991Z,100632.16
2022-12-11T07:13:48.075Z,100643.91
2022-12-11T07:16:17.201Z,100654.53
2022-12-11T07:18:48.586Z,100655.03
2022-12-11T07:21:16.293Z,100649.50
2022-12-11T07:23:43.768Z,100640.97
2022-12-11T07:26:13.919Z,100651.97
2022-12-11T07:28:41.628Z,100651.22
2022-12-11T07:31:11.165Z,100652.63
2022-12-11T07:33:38.638Z,100639.94
2022-12-11T07:36:07.733Z,100649.97
2022-12-11T07:38:35.827Z,100642.66
2022-12-11T07:41:05.616Z,100627.09
2022-12-11T07:43:33.895Z,100643.19
2022-12-11T07:46:06.915Z,100644.91
2022-12-11T07:48:39.184Z,100629.94
2022-12-11T07:51:12.403Z,100632.28
2022-12-11T07:53:39.725Z,100614.81
2022-12-11T07:56:07.680Z,100622.84
2022-12-11T07:58:39.134Z,100624.41
2022-12-11T08:01:10.726Z,100631.41
2022-12-11T08:03:37.890Z,100632.56
2022-12-11T08:06:05.571Z,100628.91
2022-12-11T08:08:32.985Z,100630.13
2022-12-11T08:11:12.547Z,100615.50
2022-12-11T08:13:41.014Z,100614.91
2022-12-11T08:16:10.389Z,100620.47
2022-12-11T08:18:39.113Z,100594.75
2022-12-11T08:21:07.873Z,100611.19
2022-12-11T08:23:35.313Z,100625.38
2022-12-11T08:26:04.565Z,100612.41
2022-12-11T08:28:32.344Z,100604.94
2022-12-11T08:31:00.872Z,100595.88
2022-12-11T08:33:28.250Z,100591.50
2022-12-11T08:35:56.050Z,100587.34
2022-12-11T08:38:25.601Z,100593.19
2022-12-11T08:40:52.925Z,100584.41
2022-12-11T08:43:20.166Z,100561.25
2022-12-11T08:45:47.417Z,100581.00
2022-12-11T08:48:14.756Z,100576.00
2022-12-11T08:50:43.069Z,100576.75
2022-12-11T08:53:10.451Z,100575.91
2022-12-11T08:55:37.904Z,100572.63
2022-12-11T08:58:05.621Z,100576.38
2022-12-11T09:00:33.181Z,100558.38
2022-12-11T09:03:00.376Z,100566.28
2022-12-11T09:05:27.474Z,100557.16
2022-12-11T09:07:54.833Z,100561.00
2022-12-11T09:10:22.176Z,100564.94
2022-12-11T09:12:49.197Z,100564.09
2022-12-11T09:15:16.476Z,100560.44
2022-12-11T09:17:43.671Z,100559.03
2022-12-11T09:20:11.480Z,100553.47
2022-12-11T09:22:38.808Z,100560.63
2022-12-11T09:25:06.652Z,100556.81
2022-12-11T09:27:34.557Z,100540.41
2022-12-11T09:30:02.028Z,100536.47
2022-12-11T09:32:31.692Z,100536.38
2022-12-11T09:34:58.795Z,100538.69
2022-12-11T09:37:25.914Z,100542.38
2022-12-11T09:39:53.197Z,100529.44
2022-12-11T09:42:30.498Z,100518.44
2022-12-11T09:45:02.050Z,100520.97
2022-12-11T09:47:50.254Z,100532.81
2022-12-11T09:50:28.145Z,100516.03
2022-12-11T09:53:05.677Z,100513.25
2022-12-11T09:55:44.857Z,100505.22
2022-12-11T09:58:28.271Z,100502.72
2022-12-11T10:01:07.706Z,100486.09
2022-12-11T10:04:06.289Z,100505.69
2022-12-11T10:07:07.116Z,100511.09
2022-12-11T10:09:49.113Z,100519.72
2022-12-11T10:12:28.295Z,100510.91
2022-12-11T10:15:08.732Z,100498.34
2022-12-11T10:17:38.622Z,100500.47
2022-12-11T10:20:35.188Z,100504.28
2022-12-11T10:23:06.594Z,100504.81
2022-12-11T10:25:45.371Z,100490.47
2022-12-11T10:28:18.081Z,100484.19
2022-12-11T10:31:01.872Z,100481.41
2022-12-11T10:33:49.278Z,100489.41
2022-12-11T10:36:22.116Z,100477.19
2022-12-11T10:38:50.405Z,100474.59
2022-12-11T10:41:33.930Z,100482.47
2022-12-11T10:44:02.042Z,100475.31
2022-12-11T10:46:33.021Z,100472.03
2022-12-11T10:49:01.506Z,100476.97
2022-12-11T10:51:31.532Z,100481.81
2022-12-11T10:54:07.362Z,100479.41
2022-12-11T10:56:37.856Z,100475.41
2022-12-11T10:59:05.366Z,100467.22
2022-12-11T11:01:33.278Z,100465.69
2022-12-11T11:04:06.750Z,100456.97
2022-12-11T11:06:34.222Z,100476.88
2022-12-11T11:09:02.382Z,100483.34
2022-12-11T11:11:36.882Z,100478.09
2022-12-11T11:14:17.142Z,100477.91
2022-12-11T11:16:48.020Z,100458.44
2022-12-11T11:19:21.854Z,100452.28
2022-12-11T11:21:55.714Z,100440.25
2022-12-11T11:24:31.511Z,100451.84
2022-12-11T11:27:14.353Z,100418.09
2022-12-11T11:29:43.538Z,100450.34
2022-12-11T11:32:38.839Z,100461.28
2022-12-11T11:35:12.584Z,100469.66
2022-12-11T11:37:54.605Z,100460.03
2022-12-11T11:40:38.136Z,100449.09
2022-12-11T11:43:16.651Z,100453.75
2022-12-11T11:46:18.608Z,100441.56
2022-12-11T11:49:12.235Z,100462.38
2022-12-11T11:52:09.053Z,100469.66
2022-12-11T11:54:42.334Z,100468.19
2022-12-11T11:57:33.046Z,100457.78
2022-12-11T12:00:10.864Z,100459.59
2022-12-11T12:02:42.330Z,100467.53
2022-12-11T12:05:13.888Z,100464.22
2022-12-11T12:07:48.205Z,100470.50
2022-12-11T12:10:26.605Z,100471.66
2022-12-11T12:13:48.225Z,100477.94
2022-12-11T12:19:57.885Z,100475.13
2022-12-11T12:23:00.605Z,100463.41
2022-12-11T12:25:39.861Z,100460.25
2022-12-11T12:28:16.202Z,100466.69
2022-12-11T12:31:21.990Z,100465.69
2022-12-11T12:34:07.981Z,100458.28
2022-12-11T12:37:19.899Z,100458.94
2022-12-11T12:40:02.718Z,100457.63
2022-12-11T12:42:48.656Z,100461.91
2022-12-11T12:45:15.997Z,100466.69
2022-12-11T12:47:53.073Z,100467.16
2022-12-11T12:50:27.161Z,100473.94
2022-12-11T12:52:56.542Z,100476.41
2022-12-11T12:55:29.681Z,100472.44
2022-12-11T12:58:05.735Z,100466.00
2022-12-11T13:00:32.807Z,100474.41
2022-12-11T13:03:11.794Z,100469.50
2022-12-11T13:05:46.289Z,100471.63
2022-12-11T13:08:24.155Z,100450.19
2022-12-11T13:11:01.082Z,100453.34
2022-12-11T13:13:37.263Z,100435.31
2022-12-11T13:16:16.718Z,100444.41
2022-12-11T13:18:47.572Z,100429.03
2022-12-11T13:21:32.838Z,100431.53
2022-12-11T13:24:21.733Z,100448.84
2022-12-11T13:26:50.576Z,100434.78
2022-12-11T13:29:33.186Z,100438.94
2022-12-11T13:32:05.178Z,100444.88
2022-12-11T13:34:34.056Z,100452.66
2022-12-11T13:37:04.088Z,100450.00
2022-12-11T13:39:35.216Z,100448.69
2022-12-11T13:42:06.293Z,100458.25
2022-12-11T13:44:40.823Z,100449.84
2022-12-11T13:47:14.376Z,100459.22
2022-12-11T13:49:44.951Z,100466.84
2022-12-11T13:52:21.928Z,100456.94
2022-12-11T13:54:51.492Z,100459.75
2022-12-11T13:57:23.260Z,100454.28
2022-12-11T14:00:00.265Z,100447.16
2022-12-11T14:02:35.655Z,100451.97
2022-12-11T14:05:07.271Z,100444.38
2022-12-11T14:07:47.224Z,100439.56
2022-12-11T14:10:17.274Z,100446.34
2022-12-11T14:12:56.789Z,100437.75
2022-12-11T14:15:25.017Z,100423.72
2022-12-11T14:17:53.036Z,100425.53
2022-12-11T14:20:25.349Z,100442.53
2022-12-11T14:22:52.665Z,100429.44
2022-12-11T14:25:26.261Z,100447.41
2022-12-11T14:27:55.288Z,100440.41
2022-12-11T14:30:30.173Z,100422.81
2022-12-11T14:33:05.486Z,100433.75
2022-12-11T14:35:42.085Z,100434.53
2022-12-11T14:38:29.511Z,100447.13
2022-12-11T14:41:05.562Z,100416.56
2022-12-11T14:43:38.629Z,100423.00
2022-12-11T14:46:11.710Z,100430.97
2022-12-11T14:48:53.865Z,100441.84
2022-12-11T14:51:29.206Z,100448.31
2022-12-11T14:53:56.722Z,100436.56
2022-12-11T14:56:28.091Z,100428.31
2022-12-11T14:59:05.432Z,100433.94
2022-12-11T15:01:35.448Z,100428.97
2022-12-11T15:04:20.104Z,100429.09
2022-12-11T15:06:49.165Z,100432.22
2022-12-11T15:09:43.556Z,100421.53
2022-12-11T15:12:19.851Z,100429.19
2022-12-11T15:14:53.192Z,100435.50
2022-12-11T15:17:21.938Z,100437.47
2022-12-11T15:19:55.562Z,100425.34
2022-12-11T15:22:27.335Z,100403.69
2022-12-11T15:24:55.061Z,100401.66
2022-12-11T15:27:39.957Z,100417.56
2022-12-11T15:30:26.608Z,100430.91
2022-12-11T15:33:12.273Z,100433.53
2022-12-11T15:35:52.322Z,100423.25
2022-12-11T15:38:35.868Z,100414.56
2022-12-11T15:41:04.406Z,100406.44
2022-12-11T15:43:36.249Z,100405.06
2022-12-11T15:46:04.951Z,100424.97
2022-12-11T15:48:32.412Z,100412.75
2022-12-11T15:50:59.528Z,100408.66
2022-12-11T15:53:26.815Z,100430.53
2022-12-11T15:55:54.765Z,100415.97
2022-12-11T15:58:25.910Z,100430.59
2022-12-11T16:00:53.990Z,100431.97
2022-12-11T16:03:23.703Z,100453.50
2022-12-11T16:05:52.522Z,100448.28
2022-12-11T16:08:23.688Z,100457.94
2022-12-11T16:10:53.456Z,100453.22
2022-12-11T16:13:20.792Z,100460.38
2022-12-11T16:15:49.682Z,100447.78
2022-12-11T16:18:21.957Z,100446.00
2022-12-11T16:20:49.974Z,100457.22
2022-12-11T16:23:17.653Z,100450.66
2022-12-11T16:25:46.769Z,100455.25
2022-12-11T16:28:15.916Z,100448.91
2022-12-11T16:30:43.706Z,100445.28
2022-12-11T16:33:13.179Z,100449.97
2022-12-11T16:35:42.999Z,100442.16
2022-12-11T16:38:11.877Z,100439.75
2022-12-11T16:40:39.256Z,100438.06
2022-12-11T16:43:06.932Z,100431.34
2022-12-11T16:45:34.250Z,100426.53
2022-12-11T16:48:05.205Z,100439.28
2022-12-11T16:50:32.568Z,100433.22
2022-12-11T16:52:59.759Z,100441.31
2022-12-11T16:55:26.951Z,100436.78
2022-12-11T16:57:55.284Z,100398.31
2022-12-11T17:00:27.191Z,100430.03
2022-12-11T17:02:54.308Z,100437.63
2022-12-11T17:05:24.992Z,100412.94
2022-12-11T17:07:52.466Z,100440.44
2022-12-11T17:10:19.610Z,100424.13
2022-12-11T17:12:46.802Z,100426.50
2022-12-11T17:15:14.107Z,100435.00
2022-12-11T17:17:43.320Z,100436.78
2022-12-11T17:20:11.539Z,100432.97
2022-12-11T17:22:38.949Z,100420.94
2022-12-11T17:25:07.089Z,100423.88
2022-12-11T17:27:34.712Z,100420.91
2022-12-11T17:30:01.972Z,100401.69
2022-12-11T17:32:30.489Z,100414.72
2022-12-11T17:34:57.561Z,100407.34
2022-12-11T17:37:24.858Z,100426.81
2022-12-11T17:39:51.967Z,100419.56
2022-12-11T17:42:19.144Z,100421.41
2022-12-11T17:44:46.273Z,100416.53
2022-12-11T17:47:13.574Z,100418.03
2022-12-11T17:49:40.764Z,100407.09
2022-12-11T17:52:08.300Z,100404.31
2022-12-11T17:54:35.470Z,100399.56
2022-12-11T17:57:02.559Z,100414.41
2022-12-11T17:59:31.587Z,100399.06
2022-12-11T18:01:59.281Z,100398.44
2022-12-11T18:04:26.485Z,100378.78
2022-12-11T18:06:54.096Z,100404.28
2022-12-11T18:09:21.373Z,100383.28
2022-12-11T18:11:48.458Z,100403.00
2022-12-11T18:14:17.621Z,100401.19
2022-12-11T18:16:45.111Z,100397.09
2022-12-11T18:19:13.022Z,100385.91
2022-12-11T18:21:42.924Z,100403.47
2022-12-11T18:24:10.607Z,100375.59
2022-12-11T18:26:37.860Z,100378.00
2022-12-11T18:29:05.474Z,100409.28
2022-12-11T18:31:36.301Z,100412.00
2022-12-11T18:34:07.014Z,100396.81
2022-12-11T18:36:35.013Z,100408.66
2022-12-11T18:39:03.399Z,100401.78
2022-12-11T18:41:30.558Z,100397.34
2022-12-11T18:44:05.185Z,100415.22
2022-12-11T18:46:35.491Z,100387.75
2022-12-11T18:49:02.862Z,100404.63
2022-12-11T18:51:30.585Z,100411.06
2022-12-11T18:53:59.269Z,100401.31
2022-12-11T18:56:26.913Z,100404.31
2022-12-11T18:58:54.290Z,100404.94
2022-12-11T19:01:25.553Z,100397.06
2022-12-11T19:04:05.321Z,100412.13
2022-12-11T19:06:35.805Z,100400.41
2022-12-11T19:09:05.458Z,100411.03
2022-12-11T19:11:34.744Z,100403.91
2022-12-11T19:14:02.465Z,100398.56
2022-12-11T19:16:35.340Z,100388.88
2022-12-11T19:19:05.788Z,100390.44
2022-12-11T19:21:35.554Z,100396.09
2022-12-11T19:24:02.754Z,100389.22
2022-12-11T19:26:31.053Z,100394.38
2022-12-11T19:29:00.680Z,100400.28
2022-12-11T19:31:30.126Z,100400.19
2022-12-11T19:33:58.256Z,100402.38
2022-12-11T19:36:27.617Z,100402.38
2022-12-11T19:39:01.153Z,100402.06
2022-12-11T19:41:29.978Z,100397.06
2022-12-11T19:43:58.803Z,100385.88
2022-12-11T19:46:27.847Z,100399.34
2022-12-11T19:49:00.009Z,100377.72
2022-12-11T19:51:33.988Z,100392.31
2022-12-11T19:54:05.047Z,100387.94
2022-12-11T19:56:33.171Z,100401.44
2022-12-11T19:59:03.019Z,100384.16
2022-12-11T20:01:33.004Z,100385.19
2022-12-11T20:04:08.008Z,100381.06
2022-12-11T20:06:36.368Z,100397.06
2022-12-11T20:09:10.923Z,100384.56
2022-12-11T20:11:44.838Z,100353.97
2022-12-11T20:14:22.428Z,100364.94
2022-12-11T20:19:38.033Z,100378.00
2022-12-11T20:22:05.762Z,100359.56
2022-12-11T20:24:34.241Z,100365.88
2022-12-11T20:27:01.681Z,100365.75
2022-12-11T20:29:28.910Z,100374.38
2022-12-11T20:31:59.940Z,100359.41
2022-12-11T20:34:28.068Z,100368.75
2022-12-11T20:36:56.398Z,100377.47
2022-12-11T20:39:23.795Z,100382.53
2022-12-11T20:41:51.506Z,100362.19
2022-12-11T20:44:20.221Z,100372.81
2022-12-11T20:46:47.636Z,100364.16
2022-12-11T20:49:14.843Z,100347.50
2022-12-11T20:51:42.160Z,100346.16
2022-12-11T20:54:09.843Z,100331.16
2022-12-11T20:56:38.105Z,100328.16
2022-12-11T20:59:05.314Z,100350.22
2022-12-11T21:01:33.691Z,100350.41
2022-12-11T21:04:01.144Z,100359.25
2022-12-11T21:06:32.330Z,100341.00
2022-12-11T21:09:01.713Z,100362.69
2022-12-11T21:11:29.246Z,100350.63
2022-12-11T21:13:56.793Z,100354.88
2022-12-11T21:16:24.613Z,100355.91
2022-12-11T21:18:52.133Z,100341.41
2022-12-11T21:21:20.248Z,100349.56
2022-12-11T21:23:48.458Z,100326.53
2022-12-11T21:26:15.739Z,100347.06
2022-12-11T21:28:43.926Z,100336.81
2022-12-11T21:31:14.497Z,100348.50
2022-12-11T21:33:41.967Z,100333.28
2022-12-11T21:36:11.788Z,100348.94
2022-12-11T21:38:41.328Z,100347.50
2022-12-11T21:41:17.386Z,100346.78
2022-12-11T21:44:56.604Z,100334.06
2022-12-11T21:46:33.551Z,100347.00
2022-12-11T21:49:00.757Z,100332.28
2022-12-11T21:51:36.484Z,100327.38
2022-12-11T21:54:06.948Z,100325.66
2022-12-11T21:56:34.610Z,100322.44
2022-12-11T21:59:02.464Z,100323.97
2022-12-11T22:01:33.796Z,100321.69
2022-12-11T22:04:01.829Z,100328.03
2022-12-11T22:06:29.082Z,100328.25
2022-12-11T22:08:56.304Z,100328.59
2022-12-11T22:11:27.609Z,100328.56
2022-12-11T22:13:54.981Z,100332.31
2022-12-11T22:16:22.705Z,100339.06
2022-12-11T22:18:49.900Z,100323.97
2022-12-11T22:21:17.432Z,100326.78
2022-12-11T22:23:44.939Z,100321.19
2022-12-11T22:26:17.560Z,100319.84
2022-12-11T22:28:44.815Z,100307.50
2022-12-11T22:31:13.775Z,100339.63
2022-12-11T22:33:41.737Z,100338.44
2022-12-11T22:36:10.628Z,100334.97
2022-12-11T22:38:38.320Z,100309.50
2022-12-11T22:41:20.528Z,100322.81
2022-12-11T22:43:49.399Z,100327.53
2022-12-11T22:46:18.094Z,100324.31
2022-12-11T22:48:45.667Z,100311.78
2022-12-11T22:51:13.102Z,100318.50
2022-12-11T22:53:40.498Z,100319.53
2022-12-11T22:56:09.321Z,100329.75
2022-12-11T22:58:37.146Z,100335.34
2022-12-11T23:01:12.244Z,100323.25
2022-12-11T23:03:39.826Z,100336.31
2022-12-11T23:06:11.551Z,100317.06
2022-12-11T23:08:40.610Z,100325.78
2022-12-11T23:11:17.453Z,100326.41
2022-12-11T23:13:44.583Z,100323.72
2022-12-11T23:16:12.559Z,100342.94
2022-12-11T23:18:39.952Z,100328.94
2022-12-11T23:21:08.351Z,100330.56
2022-12-11T23:23:35.522Z,100325.91
2022-12-11T23:26:02.803Z,100326.06
2022-12-11T23:28:30.237Z,100328.06
2022-12-11T23:30:57.432Z,100313.84
2022-12-11T23:33:26.269Z,100339.56
2022-12-11T23:35:54.947Z,100326.69
2022-12-11T23:38:22.029Z,100321.25
2022-12-11T23:40:49.810Z,100328.28
2022-12-11T23:43:17.679Z,100328.59
2022-12-11T23:45:45.846Z,100318.59
2022-12-11T23:48:14.195Z,100306.78
2022-12-11T23:50:43.337Z,100337.00
2022-12-11T23:53:11.446Z,100314.22
2022-12-11T23:55:40.514Z,100311.47
2022-12-11T23:58:08.167Z,100317.78
